Friday, October 20, 2017, 9:10 PM EDT
Back to Local

KSWF, Newburgh / Stewart

Location: New Windsor, NY, United States Lat: 41.5
Local Time: 9:10 PM EDT ( 1:10 GMT) Lon: -74.1
Time Zone: US/Eastern Elev: 492 ft

Show me the last for .
Show Coded

Time T Td Feel RH Dir Speed Gust Alt SLP Vis Weather Sky Remarks
2017-10-20 19:45 57 43 - 58 - Calm - 30.17 - 10 CLR None
2017-10-20 18:45 61 45 - 55 - Calm - 30.16 - 10 CLR None
2017-10-20 17:45 68 41 - 37 - Calm - 30.14 - 20 CLR None
2017-10-20 16:45 72 37 - 28 300° 12 - 30.12 - 20 CLR None
2017-10-20 15:45 73 41 - 31 300° 6 - 30.11 - 20 CLR None
2017-10-20 14:45 73 37 - 27 300° 6 - 30.11 - 20 CLR None
2017-10-20 13:45 72 36 - 26 290° 8 - 30.11 - 20 CLR None
2017-10-20 12:45 68 39 - 34 290° 14 18 30.14 - 20 CLR None
2017-10-20 11:45 64 39 - 39 290° 10 18 30.16 - 20 CLR None
2017-10-20 10:45 59 43 - 54 290° 14 - 30.18 - 20 CLR None
2017-10-20 09:45 59 43 - 54 290° 14 - 30.18 - 20 CLR None
2017-10-20 08:45 55 45 - 66 290° 14 - 30.17 - 20 CLR None
2017-10-20 07:45 48 45 - 87 - Calm - 30.14 - 20 CLR None
2017-10-20 06:45 54 45 - 71 300° 7 - 30.13 - 10 CLR None
2017-10-20 05:45 54 45 - 71 270° 9 - 30.11 - 10 CLR None
2017-10-20 04:45 52 46 - 81 280° 7 - 30.09 - 10 CLR None
2017-10-20 03:45 54 48 - 81 260° 7 - 30.08 - 10 SCT040 None
2017-10-20 02:45 54 48 - 81 270° 7 - 30.08 - 10 SCT040 None
2017-10-20 01:45 54 48 - 81 260° 7 - 30.09 - 10 SCT040 None
2017-10-20 00:45 55 48 - 76 300° 9 - 30.08 - 10 CLR None
2017-10-19 23:45 57 48 - 71 280° 7 - 30.07 - 10 CLR None
2017-10-19 22:45 59 48 - 67 270° 7 - 30.07 - 10 CLR None
2017-10-19 21:45 61 46 - 59 250° 9 - 30.08 - 10 CLR None

Support USWX by starting your Amazon purchase here.